Aeroporto :
LOGIN :

Iscrizione | Disclaimer

   EN    FR    IT 

 










Sommario :    VFR   VFR Marginale   IFR   IFR Intensivo   IFR Molto Intensivo
Visibilità : 
Base nubi : 
>= 8 km
>= 3000ft
5 / 8 km
1000 / 3000 ft
1500m / 5 km
500 / 1000 ft
800 / 1500m
200 / 500 ft
< 800m
< 200 ft
Simboli :   Temporali  Nebbia  Neve Forte  Precipitazioni Forti  Vento > 20 kt
SIGMETs :   Varie  Temporali  Ghiacco  Turbolenza  Onda orograficha  Ceneri Vulcaniche







- Altitudine del aeroporto : 90 ft
- Codice IATA : NTE
- Carte del aeroporto


LFRS - Nantes

ULTIMO METAR :
  • 100500Z AUTO 28002KT CAVOK 06/05 Q1031 NOSIG

METARs OBSOLETI :
  • 100430Z AUTO 30003KT CAVOK 06/05 Q1030 NOSIG
  • 100400Z AUTO 28005KT CAVOK 06/05 Q1030 NOSIG
  • 100330Z AUTO 29005KT CAVOK 07/05 Q1030 NOSIG
  • 100300Z AUTO 28005KT CAVOK 06/05 Q1030 NOSIG
  • 100230Z AUTO 28004KT CAVOK 06/05 Q1031 NOSIG

TAF TAF LFRS
Valido dal 10 a 06 ore il 11 a 12 ore UTC


100500Z 1006/1112 29005KT CAVOK
BECMG 1016/1019 VRB03KT
TEMPO 1022/1110 3000 BR
PROB40
TEMPO 1101/1109 0500 FG VV///
ATIS : +33 2 40 05 12 74
Nessun NOTAM noto per questo aeroporto.



MetMap, La meteo Aeronautica in un colpo d'occhio ! - Copyright ORBIFLY Dicembre 2007 - Disclaimer

ORBIFLY MET'MAP TEAM :

Programmazione e sviluppo : Alexandra Zaïnal
Concezione e sviluppo : Baudouin d'Aumeries
Co-Programmazione e sviluppo : Marc-Olivier Méhu
Supporto tecnico e logistico : Manuel Goepfert
Aiuto per la traduzione : Arnaldo La Scala

Contatto : metmap@orbifly.com




FONTI E CREDITI :

   NOAA